sensor_id;sensor_type;location;lat;lon;timestamp;P1;durP1;ratioP1;P2;durP2;ratioP2
7150;SDS011;3617;48.836;9.172;2023-02-28T00:00:01;2.33;;;2.03;;
7150;SDS011;3617;48.836;9.172;2023-02-28T00:02:34;4.77;;;2.30;;
7150;SDS011;3617;48.836;9.172;2023-02-28T00:05:00;4.97;;;2.50;;
7150;SDS011;3617;48.836;9.172;2023-02-28T00:07:28;2.50;;;2.20;;
7150;SDS011;3617;48.836;9.172;2023-02-28T00:09:54;4.70;;;3.00;;
7150;SDS011;3617;48.836;9.172;2023-02-28T00:12:20;3.03;;;2.70;;
7150;SDS011;3617;48.836;9.172;2023-02-28T00:14:46;2.60;;;2.30;;
7150;SDS011;3617;48.836;9.172;2023-02-28T00:17:12;3.20;;;2.70;;
7150;SDS011;3617;48.836;9.172;2023-02-28T00:19:38;2.80;;;2.33;;
7150;SDS011;3617;48.836;9.172;2023-02-28T00:22:04;3.47;;;2.47;;
7150;SDS011;3617;48.836;9.172;2023-02-28T00:24:30;3.00;;;2.70;;
7150;SDS011;3617;48.836;9.172;2023-02-28T00:26:56;3.67;;;2.80;;
7150;SDS011;3617;48.836;9.172;2023-02-28T00:29:22;4.17;;;2.60;;
7150;SDS011;3617;48.836;9.172;2023-02-28T00:31:48;3.40;;;2.93;;
7150;SDS011;3617;48.836;9.172;2023-02-28T00:34:14;4.23;;;3.03;;
7150;SDS011;3617;48.836;9.172;2023-02-28T00:36:40;3.23;;;2.30;;
7150;SDS011;3617;48.836;9.172;2023-02-28T00:39:10;3.67;;;2.53;;
7150;SDS011;3617;48.836;9.172;2023-02-28T00:41:36;4.43;;;2.63;;
7150;SDS011;3617;48.836;9.172;2023-02-28T00:44:02;3.60;;;2.80;;
7150;SDS011;3617;48.836;9.172;2023-02-28T00:46:28;3.60;;;2.83;;
7150;SDS011;3617;48.836;9.172;2023-02-28T00:48:54;4.40;;;2.87;;
7150;SDS011;3617;48.836;9.172;2023-02-28T00:51:20;4.40;;;3.17;;
7150;SDS011;3617;48.836;9.172;2023-02-28T00:53:46;5.73;;;2.97;;
7150;SDS011;3617;48.836;9.172;2023-02-28T00:56:12;4.43;;;2.83;;
7150;SDS011;3617;48.836;9.172;2023-02-28T00:58:39;4.27;;;2.87;;
7150;SDS011;3617;48.836;9.172;2023-02-28T01:01:05;5.10;;;2.70;;
7150;SDS011;3617;48.836;9.172;2023-02-28T01:03:31;5.27;;;3.50;;
7150;SDS011;3617;48.836;9.172;2023-02-28T01:05:57;4.73;;;3.40;;
7150;SDS011;3617;48.836;9.172;2023-02-28T01:08:24;3.50;;;2.80;;
7150;SDS011;3617;48.836;9.172;2023-02-28T01:10:50;3.93;;;3.20;;
7150;SDS011;3617;48.836;9.172;2023-02-28T01:13:17;5.30;;;3.07;;
7150;SDS011;3617;48.836;9.172;2023-02-28T01:15:49;3.93;;;3.20;;
7150;SDS011;3617;48.836;9.172;2023-02-28T01:18:18;6.10;;;3.77;;
7150;SDS011;3617;48.836;9.172;2023-02-28T01:20:44;5.83;;;3.60;;
7150;SDS011;3617;48.836;9.172;2023-02-28T01:23:11;4.63;;;2.97;;
7150;SDS011;3617;48.836;9.172;2023-02-28T01:25:37;4.70;;;3.00;;
7150;SDS011;3617;48.836;9.172;2023-02-28T01:28:03;3.97;;;2.50;;
7150;SDS011;3617;48.836;9.172;2023-02-28T01:30:29;3.37;;;3.00;;
7150;SDS011;3617;48.836;9.172;2023-02-28T01:32:55;5.23;;;3.33;;
7150;SDS011;3617;48.836;9.172;2023-02-28T01:35:21;3.70;;;3.07;;
7150;SDS011;3617;48.836;9.172;2023-02-28T01:37:47;6.33;;;2.97;;
7150;SDS011;3617;48.836;9.172;2023-02-28T01:40:14;4.70;;;3.03;;
7150;SDS011;3617;48.836;9.172;2023-02-28T01:42:40;4.47;;;3.10;;
7150;SDS011;3617;48.836;9.172;2023-02-28T01:45:14;6.37;;;3.40;;
7150;SDS011;3617;48.836;9.172;2023-02-28T01:47:42;3.57;;;3.20;;
7150;SDS011;3617;48.836;9.172;2023-02-28T01:50:09;4.17;;;3.10;;
7150;SDS011;3617;48.836;9.172;2023-02-28T01:52:37;3.87;;;3.47;;
7150;SDS011;3617;48.836;9.172;2023-02-28T01:55:04;4.57;;;3.17;;
7150;SDS011;3617;48.836;9.172;2023-02-28T01:57:35;4.10;;;3.40;;
7150;SDS011;3617;48.836;9.172;2023-02-28T02:00:08;4.90;;;3.53;;
7150;SDS011;3617;48.836;9.172;2023-02-28T02:02:34;4.50;;;3.40;;
7150;SDS011;3617;48.836;9.172;2023-02-28T02:07:31;4.40;;;3.27;;
7150;SDS011;3617;48.836;9.172;2023-02-28T02:10:18;5.37;;;3.70;;
7150;SDS011;3617;48.836;9.172;2023-02-28T02:12:55;5.07;;;3.20;;
7150;SDS011;3617;48.836;9.172;2023-02-28T02:17:56;4.00;;;3.20;;
7150;SDS011;3617;48.836;9.172;2023-02-28T02:25:38;5.60;;;3.60;;
7150;SDS011;3617;48.836;9.172;2023-02-28T02:40:52;4.80;;;3.60;;
7150;SDS011;3617;48.836;9.172;2023-02-28T02:43:21;4.80;;;3.80;;
7150;SDS011;3617;48.836;9.172;2023-02-28T02:45:54;7.30;;;3.53;;
7150;SDS011;3617;48.836;9.172;2023-02-28T02:48:21;5.53;;;3.30;;
7150;SDS011;3617;48.836;9.172;2023-02-28T02:50:52;5.37;;;3.47;;
7150;SDS011;3617;48.836;9.172;2023-02-28T02:53:19;6.57;;;3.90;;
7150;SDS011;3617;48.836;9.172;2023-02-28T02:55:47;5.53;;;3.27;;
7150;SDS011;3617;48.836;9.172;2023-02-28T02:58:18;4.40;;;3.33;;
7150;SDS011;3617;48.836;9.172;2023-02-28T03:00:49;4.33;;;3.47;;
7150;SDS011;3617;48.836;9.172;2023-02-28T03:03:16;5.77;;;3.87;;
7150;SDS011;3617;48.836;9.172;2023-02-28T03:05:54;6.90;;;3.53;;
7150;SDS011;3617;48.836;9.172;2023-02-28T03:08:20;4.07;;;3.57;;
7150;SDS011;3617;48.836;9.172;2023-02-28T03:10:50;4.77;;;3.43;;
7150;SDS011;3617;48.836;9.172;2023-02-28T03:16:34;5.90;;;3.67;;
7150;SDS011;3617;48.836;9.172;2023-02-28T03:21:56;5.73;;;3.93;;
7150;SDS011;3617;48.836;9.172;2023-02-28T03:24:31;6.73;;;3.60;;
7150;SDS011;3617;48.836;9.172;2023-02-28T03:27:03;6.27;;;4.30;;
7150;SDS011;3617;48.836;9.172;2023-02-28T03:29:39;5.03;;;3.77;;
7150;SDS011;3617;48.836;9.172;2023-02-28T03:32:17;6.30;;;4.53;;
7150;SDS011;3617;48.836;9.172;2023-02-28T03:34:48;7.23;;;4.03;;
7150;SDS011;3617;48.836;9.172;2023-02-28T03:37:16;6.07;;;4.03;;
7150;SDS011;3617;48.836;9.172;2023-02-28T03:42:41;5.83;;;3.63;;
7150;SDS011;3617;48.836;9.172;2023-02-28T03:45:11;4.43;;;3.30;;
7150;SDS011;3617;48.836;9.172;2023-02-28T03:47:51;4.97;;;3.70;;
7150;SDS011;3617;48.836;9.172;2023-02-28T03:50:20;5.33;;;3.53;;
7150;SDS011;3617;48.836;9.172;2023-02-28T03:52:50;5.17;;;3.77;;
7150;SDS011;3617;48.836;9.172;2023-02-28T03:55:17;5.73;;;3.67;;
7150;SDS011;3617;48.836;9.172;2023-02-28T04:00:14;5.43;;;3.83;;
7150;SDS011;3617;48.836;9.172;2023-02-28T04:02:43;4.43;;;3.63;;
7150;SDS011;3617;48.836;9.172;2023-02-28T04:05:09;5.43;;;4.00;;
7150;SDS011;3617;48.836;9.172;2023-02-28T04:07:35;6.27;;;4.20;;
7150;SDS011;3617;48.836;9.172;2023-02-28T04:10:02;9.30;;;4.27;;
7150;SDS011;3617;48.836;9.172;2023-02-28T04:12:28;6.47;;;4.30;;
7150;SDS011;3617;48.836;9.172;2023-02-28T04:14:54;6.13;;;4.13;;
7150;SDS011;3617;48.836;9.172;2023-02-28T04:17:20;7.07;;;4.20;;
7150;SDS011;3617;48.836;9.172;2023-02-28T04:19:46;5.73;;;4.33;;
7150;SDS011;3617;48.836;9.172;2023-02-28T04:22:12;6.07;;;3.57;;
7150;SDS011;3617;48.836;9.172;2023-02-28T04:24:38;5.80;;;4.17;;
7150;SDS011;3617;48.836;9.172;2023-02-28T04:27:08;6.20;;;3.97;;
7150;SDS011;3617;48.836;9.172;2023-02-28T04:29:34;7.77;;;4.20;;
7150;SDS011;3617;48.836;9.172;2023-02-28T04:32:01;3.77;;;3.43;;
7150;SDS011;3617;48.836;9.172;2023-02-28T04:34:28;6.93;;;4.37;;
7150;SDS011;3617;48.836;9.172;2023-02-28T04:36:55;6.10;;;3.73;;
7150;SDS011;3617;48.836;9.172;2023-02-28T04:39:21;7.50;;;4.73;;
7150;SDS011;3617;48.836;9.172;2023-02-28T04:41:47;6.07;;;4.13;;
7150;SDS011;3617;48.836;9.172;2023-02-28T04:44:13;5.70;;;4.37;;
7150;SDS011;3617;48.836;9.172;2023-02-28T04:46:40;7.83;;;4.20;;
7150;SDS011;3617;48.836;9.172;2023-02-28T04:49:06;6.23;;;3.90;;
7150;SDS011;3617;48.836;9.172;2023-02-28T04:51:32;6.20;;;4.00;;
7150;SDS011;3617;48.836;9.172;2023-02-28T04:53:59;6.90;;;4.37;;
7150;SDS011;3617;48.836;9.172;2023-02-28T04:56:25;9.53;;;5.63;;
7150;SDS011;3617;48.836;9.172;2023-02-28T04:58:50;6.93;;;4.80;;
7150;SDS011;3617;48.836;9.172;2023-02-28T05:01:19;6.93;;;4.77;;
7150;SDS011;3617;48.836;9.172;2023-02-28T05:03:46;19.03;;;10.67;;
7150;SDS011;3617;48.836;9.172;2023-02-28T05:06:13;22.30;;;10.57;;
7150;SDS011;3617;48.836;9.172;2023-02-28T05:08:39;22.90;;;11.13;;
7150;SDS011;3617;48.836;9.172;2023-02-28T05:11:06;10.43;;;5.53;;
7150;SDS011;3617;48.836;9.172;2023-02-28T05:13:33;7.10;;;5.10;;
7150;SDS011;3617;48.836;9.172;2023-02-28T05:16:00;8.87;;;5.33;;
7150;SDS011;3617;48.836;9.172;2023-02-28T05:18:26;6.97;;;4.60;;
7150;SDS011;3617;48.836;9.172;2023-02-28T05:20:52;6.73;;;4.50;;
7150;SDS011;3617;48.836;9.172;2023-02-28T05:23:18;6.73;;;4.20;;
7150;SDS011;3617;48.836;9.172;2023-02-28T05:25:45;9.10;;;5.03;;
7150;SDS011;3617;48.836;9.172;2023-02-28T05:28:11;8.23;;;4.30;;
7150;SDS011;3617;48.836;9.172;2023-02-28T05:30:37;9.07;;;4.83;;
7150;SDS011;3617;48.836;9.172;2023-02-28T05:33:03;7.63;;;4.23;;
7150;SDS011;3617;48.836;9.172;2023-02-28T05:35:29;7.77;;;4.73;;
7150;SDS011;3617;48.836;9.172;2023-02-28T05:37:55;8.27;;;5.27;;
7150;SDS011;3617;48.836;9.172;2023-02-28T05:40:21;7.37;;;4.30;;
7150;SDS011;3617;48.836;9.172;2023-02-28T05:42:48;6.07;;;4.53;;
7150;SDS011;3617;48.836;9.172;2023-02-28T05:45:15;6.90;;;4.23;;
7150;SDS011;3617;48.836;9.172;2023-02-28T05:47:42;10.07;;;5.80;;
7150;SDS011;3617;48.836;9.172;2023-02-28T05:50:08;7.70;;;5.00;;
7150;SDS011;3617;48.836;9.172;2023-02-28T05:52:35;6.77;;;4.70;;
7150;SDS011;3617;48.836;9.172;2023-02-28T05:55:01;6.33;;;4.57;;
7150;SDS011;3617;48.836;9.172;2023-02-28T05:57:27;8.07;;;5.03;;
7150;SDS011;3617;48.836;9.172;2023-02-28T05:59:53;7.27;;;4.60;;
7150;SDS011;3617;48.836;9.172;2023-02-28T06:02:19;9.13;;;5.37;;
7150;SDS011;3617;48.836;9.172;2023-02-28T06:04:45;7.03;;;5.13;;
7150;SDS011;3617;48.836;9.172;2023-02-28T06:07:11;7.03;;;4.50;;
7150;SDS011;3617;48.836;9.172;2023-02-28T06:09:38;9.67;;;4.30;;
7150;SDS011;3617;48.836;9.172;2023-02-28T06:12:04;7.77;;;4.70;;
7150;SDS011;3617;48.836;9.172;2023-02-28T06:14:32;8.20;;;4.90;;
7150;SDS011;3617;48.836;9.172;2023-02-28T06:16:59;6.83;;;4.30;;
7150;SDS011;3617;48.836;9.172;2023-02-28T06:19:25;9.17;;;5.10;;
7150;SDS011;3617;48.836;9.172;2023-02-28T06:21:52;6.80;;;4.33;;
7150;SDS011;3617;48.836;9.172;2023-02-28T06:24:19;8.27;;;5.20;;
7150;SDS011;3617;48.836;9.172;2023-02-28T06:26:45;13.70;;;5.10;;
7150;SDS011;3617;48.836;9.172;2023-02-28T06:29:11;7.57;;;4.90;;
7150;SDS011;3617;48.836;9.172;2023-02-28T06:31:37;9.10;;;5.13;;
7150;SDS011;3617;48.836;9.172;2023-02-28T06:34:03;7.83;;;4.30;;
7150;SDS011;3617;48.836;9.172;2023-02-28T06:36:29;6.80;;;4.63;;
7150;SDS011;3617;48.836;9.172;2023-02-28T06:38:55;7.17;;;4.37;;
7150;SDS011;3617;48.836;9.172;2023-02-28T06:41:25;8.50;;;5.20;;
7150;SDS011;3617;48.836;9.172;2023-02-28T06:43:52;8.03;;;4.50;;
7150;SDS011;3617;48.836;9.172;2023-02-28T06:46:18;8.83;;;4.63;;
7150;SDS011;3617;48.836;9.172;2023-02-28T06:48:44;11.27;;;5.30;;
7150;SDS011;3617;48.836;9.172;2023-02-28T06:51:14;9.13;;;4.63;;
7150;SDS011;3617;48.836;9.172;2023-02-28T06:53:41;8.00;;;4.70;;
7150;SDS011;3617;48.836;9.172;2023-02-28T06:56:08;8.23;;;5.00;;
7150;SDS011;3617;48.836;9.172;2023-02-28T06:58:35;13.57;;;5.30;;
7150;SDS011;3617;48.836;9.172;2023-02-28T07:01:01;9.07;;;5.00;;
7150;SDS011;3617;48.836;9.172;2023-02-28T07:03:27;6.73;;;5.30;;
7150;SDS011;3617;48.836;9.172;2023-02-28T07:05:53;8.73;;;5.20;;
7150;SDS011;3617;48.836;9.172;2023-02-28T07:08:21;7.70;;;4.70;;
7150;SDS011;3617;48.836;9.172;2023-02-28T07:10:47;6.87;;;4.90;;
7150;SDS011;3617;48.836;9.172;2023-02-28T07:13:13;8.67;;;5.23;;
7150;SDS011;3617;48.836;9.172;2023-02-28T07:15:39;9.30;;;5.30;;
7150;SDS011;3617;48.836;9.172;2023-02-28T07:18:05;10.63;;;5.30;;
7150;SDS011;3617;48.836;9.172;2023-02-28T07:20:31;9.50;;;5.27;;
7150;SDS011;3617;48.836;9.172;2023-02-28T07:22:57;8.33;;;5.00;;
7150;SDS011;3617;48.836;9.172;2023-02-28T07:25:23;5.93;;;4.53;;
7150;SDS011;3617;48.836;9.172;2023-02-28T07:27:50;7.53;;;4.90;;
7150;SDS011;3617;48.836;9.172;2023-02-28T07:30:16;10.23;;;4.73;;
7150;SDS011;3617;48.836;9.172;2023-02-28T07:32:42;7.23;;;4.90;;
7150;SDS011;3617;48.836;9.172;2023-02-28T07:35:08;7.43;;;4.93;;
7150;SDS011;3617;48.836;9.172;2023-02-28T07:37:34;8.33;;;5.33;;
7150;SDS011;3617;48.836;9.172;2023-02-28T07:40:02;8.33;;;5.40;;
7150;SDS011;3617;48.836;9.172;2023-02-28T07:42:31;5.93;;;4.53;;
7150;SDS011;3617;48.836;9.172;2023-02-28T07:44:57;8.93;;;4.87;;
7150;SDS011;3617;48.836;9.172;2023-02-28T07:47:23;8.47;;;4.97;;
7150;SDS011;3617;48.836;9.172;2023-02-28T07:49:49;8.90;;;5.33;;
7150;SDS011;3617;48.836;9.172;2023-02-28T07:52:15;10.40;;;6.13;;
7150;SDS011;3617;48.836;9.172;2023-02-28T07:54:41;12.50;;;5.70;;
7150;SDS011;3617;48.836;9.172;2023-02-28T07:57:07;10.73;;;5.83;;
7150;SDS011;3617;48.836;9.172;2023-02-28T07:59:33;11.23;;;6.40;;
7150;SDS011;3617;48.836;9.172;2023-02-28T08:01:59;10.47;;;6.10;;
7150;SDS011;3617;48.836;9.172;2023-02-28T08:04:26;9.10;;;5.80;;
7150;SDS011;3617;48.836;9.172;2023-02-28T08:06:52;9.50;;;4.90;;
7150;SDS011;3617;48.836;9.172;2023-02-28T08:09:18;9.57;;;5.77;;
7150;SDS011;3617;48.836;9.172;2023-02-28T08:11:44;10.10;;;5.80;;
7150;SDS011;3617;48.836;9.172;2023-02-28T08:14:10;9.97;;;5.80;;
7150;SDS011;3617;48.836;9.172;2023-02-28T08:16:36;10.87;;;5.57;;
7150;SDS011;3617;48.836;9.172;2023-02-28T08:19:03;7.70;;;5.17;;
7150;SDS011;3617;48.836;9.172;2023-02-28T08:21:29;9.80;;;5.60;;
7150;SDS011;3617;48.836;9.172;2023-02-28T08:23:55;9.60;;;5.50;;
7150;SDS011;3617;48.836;9.172;2023-02-28T08:26:22;8.67;;;5.27;;
7150;SDS011;3617;48.836;9.172;2023-02-28T08:28:48;8.73;;;6.00;;
7150;SDS011;3617;48.836;9.172;2023-02-28T08:31:14;9.67;;;5.70;;
7150;SDS011;3617;48.836;9.172;2023-02-28T08:33:41;10.07;;;6.13;;
7150;SDS011;3617;48.836;9.172;2023-02-28T08:36:08;12.27;;;6.60;;
7150;SDS011;3617;48.836;9.172;2023-02-28T08:38:34;9.50;;;6.53;;
7150;SDS011;3617;48.836;9.172;2023-02-28T08:41:02;8.67;;;5.43;;
7150;SDS011;3617;48.836;9.172;2023-02-28T08:43:28;10.17;;;6.10;;
7150;SDS011;3617;48.836;9.172;2023-02-28T08:45:55;9.83;;;5.60;;
7150;SDS011;3617;48.836;9.172;2023-02-28T08:48:25;9.50;;;6.17;;
7150;SDS011;3617;48.836;9.172;2023-02-28T08:51:05;10.77;;;5.93;;
7150;SDS011;3617;48.836;9.172;2023-02-28T08:53:32;8.77;;;5.73;;
7150;SDS011;3617;48.836;9.172;2023-02-28T08:56:02;11.20;;;6.93;;
7150;SDS011;3617;48.836;9.172;2023-02-28T08:58:28;10.30;;;5.77;;
7150;SDS011;3617;48.836;9.172;2023-02-28T09:00:55;11.27;;;5.77;;
7150;SDS011;3617;48.836;9.172;2023-02-28T09:03:21;9.90;;;5.97;;
7150;SDS011;3617;48.836;9.172;2023-02-28T09:05:54;11.33;;;6.40;;
7150;SDS011;3617;48.836;9.172;2023-02-28T09:08:20;8.10;;;5.67;;
7150;SDS011;3617;48.836;9.172;2023-02-28T09:10:46;10.50;;;6.37;;
7150;SDS011;3617;48.836;9.172;2023-02-28T09:13:12;10.90;;;5.57;;
7150;SDS011;3617;48.836;9.172;2023-02-28T09:15:39;11.03;;;6.20;;
7150;SDS011;3617;48.836;9.172;2023-02-28T09:18:05;10.57;;;6.13;;
7150;SDS011;3617;48.836;9.172;2023-02-28T09:20:31;10.07;;;5.73;;
7150;SDS011;3617;48.836;9.172;2023-02-28T09:22:57;12.37;;;6.97;;
7150;SDS011;3617;48.836;9.172;2023-02-28T09:25:23;9.80;;;5.77;;
7150;SDS011;3617;48.836;9.172;2023-02-28T09:27:49;9.00;;;6.10;;
7150;SDS011;3617;48.836;9.172;2023-02-28T09:30:15;10.10;;;5.70;;
7150;SDS011;3617;48.836;9.172;2023-02-28T09:32:41;12.20;;;6.50;;
7150;SDS011;3617;48.836;9.172;2023-02-28T09:35:07;12.60;;;6.50;;
7150;SDS011;3617;48.836;9.172;2023-02-28T09:37:38;8.77;;;5.63;;
7150;SDS011;3617;48.836;9.172;2023-02-28T09:40:04;10.53;;;5.90;;
7150;SDS011;3617;48.836;9.172;2023-02-28T09:42:31;12.00;;;6.47;;
7150;SDS011;3617;48.836;9.172;2023-02-28T09:44:58;11.30;;;6.60;;
7150;SDS011;3617;48.836;9.172;2023-02-28T09:47:30;11.60;;;5.93;;
7150;SDS011;3617;48.836;9.172;2023-02-28T09:49:58;10.67;;;6.40;;
7150;SDS011;3617;48.836;9.172;2023-02-28T09:52:28;10.63;;;6.00;;
7150;SDS011;3617;48.836;9.172;2023-02-28T09:54:55;10.20;;;6.23;;
7150;SDS011;3617;48.836;9.172;2023-02-28T09:57:35;8.27;;;6.07;;
7150;SDS011;3617;48.836;9.172;2023-02-28T10:00:21;8.83;;;5.87;;
7150;SDS011;3617;48.836;9.172;2023-02-28T10:05:33;8.13;;;5.33;;
7150;SDS011;3617;48.836;9.172;2023-02-28T10:08:09;10.83;;;6.67;;
7150;SDS011;3617;48.836;9.172;2023-02-28T10:13:12;10.50;;;6.50;;
7150;SDS011;3617;48.836;9.172;2023-02-28T10:15:39;11.20;;;6.73;;
7150;SDS011;3617;48.836;9.172;2023-02-28T10:18:08;10.87;;;6.10;;
7150;SDS011;3617;48.836;9.172;2023-02-28T10:20:39;9.43;;;5.70;;
7150;SDS011;3617;48.836;9.172;2023-02-28T10:23:23;10.63;;;6.13;;
7150;SDS011;3617;48.836;9.172;2023-02-28T10:25:59;9.30;;;6.00;;
7150;SDS011;3617;48.836;9.172;2023-02-28T10:28:25;11.43;;;6.90;;
7150;SDS011;3617;48.836;9.172;2023-02-28T10:30:52;16.50;;;6.57;;
7150;SDS011;3617;48.836;9.172;2023-02-28T10:33:21;10.57;;;6.07;;
7150;SDS011;3617;48.836;9.172;2023-02-28T10:35:48;9.00;;;6.17;;
7150;SDS011;3617;48.836;9.172;2023-02-28T10:38:15;9.97;;;6.53;;
7150;SDS011;3617;48.836;9.172;2023-02-28T10:40:41;15.53;;;7.07;;
7150;SDS011;3617;48.836;9.172;2023-02-28T10:45:40;9.83;;;5.90;;
7150;SDS011;3617;48.836;9.172;2023-02-28T10:53:34;11.27;;;6.80;;
7150;SDS011;3617;48.836;9.172;2023-02-28T10:58:44;11.63;;;6.50;;
7150;SDS011;3617;48.836;9.172;2023-02-28T11:01:13;12.00;;;6.53;;
7150;SDS011;3617;48.836;9.172;2023-02-28T11:03:39;11.43;;;6.30;;
7150;SDS011;3617;48.836;9.172;2023-02-28T11:06:07;10.03;;;6.10;;
7150;SDS011;3617;48.836;9.172;2023-02-28T11:08:33;9.47;;;6.40;;
7150;SDS011;3617;48.836;9.172;2023-02-28T11:11:04;10.43;;;6.70;;
7150;SDS011;3617;48.836;9.172;2023-02-28T11:13:35;11.77;;;6.73;;
7150;SDS011;3617;48.836;9.172;2023-02-28T11:16:06;10.07;;;6.57;;
7150;SDS011;3617;48.836;9.172;2023-02-28T11:18:36;9.93;;;6.10;;
7150;SDS011;3617;48.836;9.172;2023-02-28T11:21:04;10.77;;;6.80;;
7150;SDS011;3617;48.836;9.172;2023-02-28T11:23:31;10.57;;;6.63;;
7150;SDS011;3617;48.836;9.172;2023-02-28T11:25:59;8.80;;;6.30;;
7150;SDS011;3617;48.836;9.172;2023-02-28T11:28:32;9.13;;;6.27;;
7150;SDS011;3617;48.836;9.172;2023-02-28T11:31:00;11.23;;;6.97;;
7150;SDS011;3617;48.836;9.172;2023-02-28T11:33:28;9.50;;;6.37;;
7150;SDS011;3617;48.836;9.172;2023-02-28T11:35:57;9.90;;;6.23;;
7150;SDS011;3617;48.836;9.172;2023-02-28T11:38:24;8.93;;;6.37;;
7150;SDS011;3617;48.836;9.172;2023-02-28T11:43:39;9.10;;;6.13;;
7150;SDS011;3617;48.836;9.172;2023-02-28T11:49:20;9.27;;;6.47;;
7150;SDS011;3617;48.836;9.172;2023-02-28T11:51:48;8.83;;;5.87;;
7150;SDS011;3617;48.836;9.172;2023-02-28T11:56:47;9.13;;;6.53;;
7150;SDS011;3617;48.836;9.172;2023-02-28T12:06:58;9.47;;;6.07;;
7150;SDS011;3617;48.836;9.172;2023-02-28T12:12:21;9.40;;;6.07;;
7150;SDS011;3617;48.836;9.172;2023-02-28T12:20:05;8.73;;;5.10;;
7150;SDS011;3617;48.836;9.172;2023-02-28T12:22:37;8.83;;;5.90;;
7150;SDS011;3617;48.836;9.172;2023-02-28T12:25:16;9.00;;;5.63;;
7150;SDS011;3617;48.836;9.172;2023-02-28T12:27:45;8.80;;;5.93;;
7150;SDS011;3617;48.836;9.172;2023-02-28T12:32:44;7.80;;;5.80;;
7150;SDS011;3617;48.836;9.172;2023-02-28T12:35:12;9.60;;;6.00;;
7150;SDS011;3617;48.836;9.172;2023-02-28T12:37:41;7.47;;;5.60;;
7150;SDS011;3617;48.836;9.172;2023-02-28T12:42:39;9.43;;;5.60;;
7150;SDS011;3617;48.836;9.172;2023-02-28T12:45:18;7.87;;;5.50;;
7150;SDS011;3617;48.836;9.172;2023-02-28T12:47:46;10.40;;;5.60;;
7150;SDS011;3617;48.836;9.172;2023-02-28T12:50:14;8.07;;;5.60;;
7150;SDS011;3617;48.836;9.172;2023-02-28T12:55:19;7.53;;;5.53;;
7150;SDS011;3617;48.836;9.172;2023-02-28T13:00:23;7.97;;;5.40;;
7150;SDS011;3617;48.836;9.172;2023-02-28T13:02:57;7.37;;;5.83;;
7150;SDS011;3617;48.836;9.172;2023-02-28T13:08:11;7.80;;;5.53;;
7150;SDS011;3617;48.836;9.172;2023-02-28T13:10:44;8.90;;;5.80;;
7150;SDS011;3617;48.836;9.172;2023-02-28T13:13:16;8.10;;;5.73;;
7150;SDS011;3617;48.836;9.172;2023-02-28T13:15:56;7.80;;;5.80;;
7150;SDS011;3617;48.836;9.172;2023-02-28T13:18:27;7.37;;;5.73;;
7150;SDS011;3617;48.836;9.172;2023-02-28T13:20:54;9.27;;;5.80;;
7150;SDS011;3617;48.836;9.172;2023-02-28T13:23:37;8.07;;;5.50;;
7150;SDS011;3617;48.836;9.172;2023-02-28T13:26:04;8.07;;;5.57;;
7150;SDS011;3617;48.836;9.172;2023-02-28T13:31:15;6.67;;;4.93;;
7150;SDS011;3617;48.836;9.172;2023-02-28T13:38:53;7.87;;;5.67;;
7150;SDS011;3617;48.836;9.172;2023-02-28T13:43:59;8.37;;;5.23;;
7150;SDS011;3617;48.836;9.172;2023-02-28T13:46:26;7.63;;;5.43;;
7150;SDS011;3617;48.836;9.172;2023-02-28T13:48:53;7.37;;;5.33;;
7150;SDS011;3617;48.836;9.172;2023-02-28T13:54:17;6.63;;;5.30;;
7150;SDS011;3617;48.836;9.172;2023-02-28T13:56:56;8.37;;;5.80;;
7150;SDS011;3617;48.836;9.172;2023-02-28T14:02:01;8.10;;;5.53;;
7150;SDS011;3617;48.836;9.172;2023-02-28T14:06:55;9.80;;;5.97;;
7150;SDS011;3617;48.836;9.172;2023-02-28T14:11:52;6.90;;;5.43;;
7150;SDS011;3617;48.836;9.172;2023-02-28T14:15:23;7.90;;;5.47;;
7150;SDS011;3617;48.836;9.172;2023-02-28T14:17:14;9.87;;;5.70;;
7150;SDS011;3617;48.836;9.172;2023-02-28T14:19:43;10.47;;;6.03;;
7150;SDS011;3617;48.836;9.172;2023-02-28T14:25:04;9.50;;;5.90;;
7150;SDS011;3617;48.836;9.172;2023-02-28T14:30:15;7.60;;;5.80;;
7150;SDS011;3617;48.836;9.172;2023-02-28T14:38:04;9.93;;;5.57;;
7150;SDS011;3617;48.836;9.172;2023-02-28T14:40:35;8.47;;;5.60;;
7150;SDS011;3617;48.836;9.172;2023-02-28T14:43:05;9.23;;;6.13;;
7150;SDS011;3617;48.836;9.172;2023-02-28T14:45:32;9.03;;;5.80;;
7150;SDS011;3617;48.836;9.172;2023-02-28T14:47:59;12.70;;;5.60;;
7150;SDS011;3617;48.836;9.172;2023-02-28T14:50:30;8.03;;;5.30;;
7150;SDS011;3617;48.836;9.172;2023-02-28T14:52:57;8.07;;;6.13;;
7150;SDS011;3617;48.836;9.172;2023-02-28T14:55:28;9.40;;;6.20;;
7150;SDS011;3617;48.836;9.172;2023-02-28T14:57:58;9.80;;;6.00;;
7150;SDS011;3617;48.836;9.172;2023-02-28T15:00:26;9.27;;;6.03;;
7150;SDS011;3617;48.836;9.172;2023-02-28T15:02:54;9.97;;;6.07;;
7150;SDS011;3617;48.836;9.172;2023-02-28T15:05:25;7.13;;;5.30;;
7150;SDS011;3617;48.836;9.172;2023-02-28T15:08:02;7.93;;;5.50;;
7150;SDS011;3617;48.836;9.172;2023-02-28T15:10:29;8.30;;;6.00;;
7150;SDS011;3617;48.836;9.172;2023-02-28T15:12:57;8.07;;;6.03;;
7150;SDS011;3617;48.836;9.172;2023-02-28T15:18:04;7.90;;;5.53;;
7150;SDS011;3617;48.836;9.172;2023-02-28T15:20:31;9.30;;;6.47;;
7150;SDS011;3617;48.836;9.172;2023-02-28T15:23:01;8.67;;;6.00;;
7150;SDS011;3617;48.836;9.172;2023-02-28T15:25:27;7.57;;;5.60;;
7150;SDS011;3617;48.836;9.172;2023-02-28T15:27:54;7.93;;;5.90;;
7150;SDS011;3617;48.836;9.172;2023-02-28T15:30:24;8.83;;;6.07;;
7150;SDS011;3617;48.836;9.172;2023-02-28T15:33:04;8.80;;;6.17;;
7150;SDS011;3617;48.836;9.172;2023-02-28T15:35:31;10.60;;;6.20;;
7150;SDS011;3617;48.836;9.172;2023-02-28T15:38:02;9.00;;;6.30;;
7150;SDS011;3617;48.836;9.172;2023-02-28T15:40:35;9.03;;;6.30;;
7150;SDS011;3617;48.836;9.172;2023-02-28T15:43:12;8.87;;;6.63;;
7150;SDS011;3617;48.836;9.172;2023-02-28T15:48:13;8.50;;;6.03;;
7150;SDS011;3617;48.836;9.172;2023-02-28T15:50:40;8.80;;;6.17;;
7150;SDS011;3617;48.836;9.172;2023-02-28T15:53:12;9.53;;;5.77;;
7150;SDS011;3617;48.836;9.172;2023-02-28T15:55:38;9.33;;;6.20;;
7150;SDS011;3617;48.836;9.172;2023-02-28T15:58:08;11.43;;;6.30;;
7150;SDS011;3617;48.836;9.172;2023-02-28T16:00:36;8.60;;;6.20;;
7150;SDS011;3617;48.836;9.172;2023-02-28T16:03:22;11.07;;;6.23;;
7150;SDS011;3617;48.836;9.172;2023-02-28T16:06:07;9.57;;;5.90;;
7150;SDS011;3617;48.836;9.172;2023-02-28T16:08:33;9.77;;;6.17;;
7150;SDS011;3617;48.836;9.172;2023-02-28T16:10:59;11.00;;;6.13;;
7150;SDS011;3617;48.836;9.172;2023-02-28T16:13:28;9.90;;;6.23;;
7150;SDS011;3617;48.836;9.172;2023-02-28T16:15:54;7.77;;;5.60;;
7150;SDS011;3617;48.836;9.172;2023-02-28T16:18:20;10.17;;;5.97;;
7150;SDS011;3617;48.836;9.172;2023-02-28T16:20:46;9.77;;;6.10;;
7150;SDS011;3617;48.836;9.172;2023-02-28T16:23:12;10.67;;;5.90;;
7150;SDS011;3617;48.836;9.172;2023-02-28T16:25:39;10.13;;;6.43;;
7150;SDS011;3617;48.836;9.172;2023-02-28T16:28:39;8.10;;;5.87;;
7150;SDS011;3617;48.836;9.172;2023-02-28T16:31:01;10.70;;;6.77;;
7150;SDS011;3617;48.836;9.172;2023-02-28T16:33:28;11.23;;;6.40;;
7150;SDS011;3617;48.836;9.172;2023-02-28T16:35:55;9.37;;;6.27;;
7150;SDS011;3617;48.836;9.172;2023-02-28T16:38:21;11.30;;;7.13;;
7150;SDS011;3617;48.836;9.172;2023-02-28T16:40:49;11.87;;;6.77;;
7150;SDS011;3617;48.836;9.172;2023-02-28T16:43:17;8.27;;;5.90;;
7150;SDS011;3617;48.836;9.172;2023-02-28T16:45:43;9.00;;;6.23;;
7150;SDS011;3617;48.836;9.172;2023-02-28T16:48:19;10.70;;;6.60;;
7150;SDS011;3617;48.836;9.172;2023-02-28T16:50:45;11.13;;;6.87;;
7150;SDS011;3617;48.836;9.172;2023-02-28T16:53:10;12.30;;;7.53;;
7150;SDS011;3617;48.836;9.172;2023-02-28T16:55:37;13.30;;;8.57;;
7150;SDS011;3617;48.836;9.172;2023-02-28T16:58:03;14.50;;;8.07;;
7150;SDS011;3617;48.836;9.172;2023-02-28T17:00:30;18.57;;;9.97;;
7150;SDS011;3617;48.836;9.172;2023-02-28T17:02:56;17.57;;;10.23;;
7150;SDS011;3617;48.836;9.172;2023-02-28T17:05:24;16.60;;;9.53;;
7150;SDS011;3617;48.836;9.172;2023-02-28T17:07:53;15.00;;;7.70;;
7150;SDS011;3617;48.836;9.172;2023-02-28T17:10:23;12.63;;;7.00;;
7150;SDS011;3617;48.836;9.172;2023-02-28T17:12:50;11.37;;;6.97;;
7150;SDS011;3617;48.836;9.172;2023-02-28T17:15:17;10.93;;;7.40;;
7150;SDS011;3617;48.836;9.172;2023-02-28T17:17:44;15.67;;;8.17;;
7150;SDS011;3617;48.836;9.172;2023-02-28T17:20:18;13.53;;;7.17;;
7150;SDS011;3617;48.836;9.172;2023-02-28T17:22:47;14.40;;;7.33;;